createdAt,value
2023-05-25T00:00:20.821Z,60.10
2023-05-25T00:02:52.203Z,60.10
2023-05-25T00:05:23.062Z,60.10
2023-05-25T00:07:53.452Z,60.10
2023-05-25T00:10:24.897Z,60.00
2023-05-25T00:12:57.627Z,60.00
2023-05-25T00:15:27.964Z,60.00
2023-05-25T00:17:58.390Z,60.00
2023-05-25T00:20:28.894Z,60.00
2023-05-25T00:22:59.596Z,59.90
2023-05-25T00:25:30.367Z,59.90
2023-05-25T00:28:00.676Z,59.90
2023-05-25T00:30:30.950Z,59.90
2023-05-25T00:33:03.264Z,60.00
2023-05-25T00:35:33.657Z,60.00
2023-05-25T00:38:04.195Z,59.90
2023-05-25T00:40:34.630Z,59.90
2023-05-25T00:43:05.248Z,59.90
2023-05-25T00:45:35.562Z,59.90
2023-05-25T00:48:08.157Z,59.90
2023-05-25T00:50:42.327Z,59.90
2023-05-25T00:53:14.671Z,59.90
2023-05-25T00:56:07.412Z,59.90
2023-05-25T00:58:45.591Z,59.90
2023-05-25T01:01:17.868Z,59.90
2023-05-25T01:03:56.614Z,59.90
2023-05-25T01:06:28.894Z,60.00
2023-05-25T01:09:04.060Z,59.90
2023-05-25T01:11:41.344Z,60.00
2023-05-25T01:14:12.200Z,60.00
2023-05-25T01:16:43.801Z,60.00
2023-05-25T01:19:14.489Z,60.00
2023-05-25T01:21:47.615Z,60.00
2023-05-25T01:24:37.272Z,60.00
2023-05-25T01:27:29.814Z,60.00
2023-05-25T01:30:02.372Z,59.90
2023-05-25T01:32:34.194Z,60.00
2023-05-25T01:35:05.328Z,59.90
2023-05-25T01:37:39.197Z,59.90
2023-05-25T01:40:10.479Z,60.00
2023-05-25T01:42:40.798Z,60.00
2023-05-25T01:45:13.567Z,59.90
2023-05-25T01:47:56.167Z,59.90
2023-05-25T01:50:36.038Z,60.00
2023-05-25T01:53:27.584Z,60.00
2023-05-25T01:56:11.094Z,60.00
2023-05-25T01:58:50.960Z,60.00
2023-05-25T02:01:22.683Z,59.90
2023-05-25T02:03:53.920Z,60.00
2023-05-25T02:06:24.652Z,59.90
2023-05-25T02:08:55.110Z,59.90
2023-05-25T02:11:25.787Z,59.80
2023-05-25T02:13:56.416Z,59.80
2023-05-25T02:16:26.918Z,59.90
2023-05-25T02:18:59.779Z,59.80
2023-05-25T02:21:30.564Z,59.90
2023-05-25T02:24:00.916Z,59.80
2023-05-25T02:26:31.481Z,59.80
2023-05-25T02:29:03.625Z,59.80
2023-05-25T02:31:34.377Z,59.70
2023-05-25T02:34:04.939Z,59.70
2023-05-25T02:36:36.577Z,59.60
2023-05-25T02:39:07.300Z,59.60
2023-05-25T02:41:37.601Z,59.60
2023-05-25T02:44:08.262Z,59.50
2023-05-25T02:46:38.661Z,59.50
2023-05-25T02:49:08.979Z,59.50
2023-05-25T02:51:39.380Z,59.40
2023-05-25T02:54:09.713Z,59.40
2023-05-25T02:56:40.145Z,59.40
2023-05-25T02:59:10.948Z,59.30
2023-05-25T03:01:42.702Z,59.20
2023-05-25T03:04:13.179Z,59.30
2023-05-25T03:06:43.614Z,59.20
2023-05-25T03:09:14.933Z,59.20
2023-05-25T03:11:45.246Z,59.10
2023-05-25T03:14:15.587Z,59.20
2023-05-25T03:16:46.036Z,59.10
2023-05-25T03:19:16.374Z,59.10
2023-05-25T03:21:46.925Z,59.10
2023-05-25T03:24:17.289Z,59.00
2023-05-25T03:26:47.966Z,59.00
2023-05-25T03:29:18.247Z,59.00
2023-05-25T03:31:48.938Z,58.90
2023-05-25T03:34:19.342Z,58.90
2023-05-25T03:36:49.726Z,58.80
2023-05-25T03:39:20.044Z,58.80
2023-05-25T03:41:50.671Z,58.80
2023-05-25T03:44:21.044Z,58.80
2023-05-25T03:46:51.332Z,58.80
2023-05-25T03:49:21.617Z,58.70
2023-05-25T03:51:51.980Z,58.70
2023-05-25T03:54:22.244Z,58.70
2023-05-25T03:56:52.609Z,58.60
2023-05-25T03:59:22.917Z,58.60
2023-05-25T04:01:53.390Z,58.60
2023-05-25T04:04:23.905Z,58.60
2023-05-25T04:06:54.157Z,58.50
2023-05-25T04:09:24.815Z,58.40
2023-05-25T04:11:55.513Z,58.50
2023-05-25T04:14:25.716Z,58.40
2023-05-25T04:16:55.945Z,58.40
2023-05-25T04:19:26.220Z,58.40
2023-05-25T04:21:56.776Z,58.40
2023-05-25T04:24:27.114Z,58.30
2023-05-25T04:26:58.391Z,58.30
2023-05-25T04:29:28.699Z,58.30
2023-05-25T04:31:59.055Z,58.30
2023-05-25T04:34:31.328Z,58.20
2023-05-25T04:37:06.852Z,58.20
2023-05-25T04:39:37.223Z,58.20
2023-05-25T04:42:07.968Z,58.20
2023-05-25T04:44:39.382Z,58.10
2023-05-25T04:47:10.017Z,58.10
2023-05-25T04:49:40.296Z,58.10
2023-05-25T04:52:10.704Z,58.00
2023-05-25T04:54:43.471Z,58.00
2023-05-25T04:57:13.834Z,58.00
2023-05-25T04:59:44.205Z,57.90
2023-05-25T05:02:14.632Z,57.90
2023-05-25T05:04:44.927Z,57.90
2023-05-25T05:07:15.715Z,57.90
2023-05-25T05:09:45.994Z,57.90
2023-05-25T05:12:16.439Z,57.80
2023-05-25T05:14:46.853Z,57.80
2023-05-25T05:17:17.208Z,57.70
2023-05-25T05:19:47.547Z,57.80
2023-05-25T05:22:17.919Z,57.80
2023-05-25T05:24:48.301Z,57.70
2023-05-25T05:27:19.097Z,57.70
2023-05-25T05:29:49.428Z,57.70
2023-05-25T05:32:19.787Z,57.70
2023-05-25T05:34:50.149Z,57.70
2023-05-25T05:37:20.583Z,57.70
2023-05-25T05:39:50.988Z,57.70
2023-05-25T05:42:21.449Z,57.70
2023-05-25T05:44:51.833Z,57.70
2023-05-25T05:47:22.155Z,57.70
2023-05-25T05:49:52.562Z,57.70
2023-05-25T05:52:22.947Z,57.70
2023-05-25T05:54:53.295Z,57.70
2023-05-25T05:57:23.682Z,57.70
2023-05-25T05:59:54.573Z,57.70
2023-05-25T06:02:25.009Z,57.70
2023-05-25T06:04:55.462Z,57.70
2023-05-25T06:07:25.785Z,57.70
2023-05-25T06:09:56.223Z,57.80
2023-05-25T06:12:26.584Z,57.70
2023-05-25T06:14:57.135Z,57.70
2023-05-25T06:17:28.098Z,57.70
2023-05-25T06:19:59.047Z,57.70
2023-05-25T06:22:30.574Z,57.70
2023-05-25T06:25:01.577Z,57.70
2023-05-25T06:27:31.929Z,57.70
2023-05-25T06:30:02.273Z,57.70
2023-05-25T06:32:32.612Z,57.70
2023-05-25T06:35:03.978Z,57.80
2023-05-25T06:37:39.938Z,57.80
2023-05-25T06:40:12.132Z,57.70
2023-05-25T06:42:53.066Z,57.80
2023-05-25T06:45:23.899Z,58.40
2023-05-25T06:47:54.644Z,57.90
2023-05-25T06:50:30.590Z,58.00
2023-05-25T06:53:03.613Z,58.20
2023-05-25T06:55:34.334Z,58.30
2023-05-25T06:58:05.120Z,58.20
2023-05-25T07:00:35.674Z,58.20
2023-05-25T07:03:11.761Z,58.20
2023-05-25T07:05:43.815Z,58.20
2023-05-25T07:08:17.507Z,58.20
2023-05-25T07:10:51.188Z,58.20
2023-05-25T07:13:28.416Z,58.90
2023-05-25T07:15:59.313Z,58.30
2023-05-25T07:18:34.500Z,58.20
2023-05-25T07:21:11.321Z,58.20
2023-05-25T07:23:48.960Z,58.30
2023-05-25T07:26:23.051Z,58.40
2023-05-25T07:29:07.329Z,58.50
2023-05-25T07:31:40.391Z,58.40
2023-05-25T07:34:12.295Z,58.40
2023-05-25T07:36:43.386Z,58.30
2023-05-25T07:39:14.141Z,58.10
2023-05-25T07:41:54.976Z,58.00
2023-05-25T07:44:26.872Z,58.00
2023-05-25T07:47:02.518Z,57.90
2023-05-25T07:49:33.362Z,57.90
2023-05-25T07:52:06.672Z,58.10
2023-05-25T07:54:41.951Z,58.20
2023-05-25T07:57:13.072Z,58.20
2023-05-25T07:59:52.832Z,58.40
2023-05-25T08:02:23.673Z,58.40
2023-05-25T08:04:54.390Z,58.50
2023-05-25T08:07:26.652Z,58.40
2023-05-25T08:09:56.986Z,58.40
2023-05-25T08:12:45.845Z,58.30
2023-05-25T08:15:18.191Z,58.10
2023-05-25T08:17:49.758Z,58.20
2023-05-25T08:20:20.813Z,58.10
2023-05-25T08:22:51.608Z,58.10
2023-05-25T08:25:22.430Z,58.10
2023-05-25T08:27:52.822Z,57.90
2023-05-25T08:30:23.535Z,57.80
2023-05-25T08:32:54.135Z,57.60
2023-05-25T08:35:24.595Z,57.50
2023-05-25T08:37:55.011Z,57.50
2023-05-25T08:40:30.055Z,57.50
2023-05-25T08:43:00.680Z,57.50
2023-05-25T08:45:35.323Z,57.50
2023-05-25T08:48:12.335Z,57.60
2023-05-25T08:50:44.214Z,57.60
2023-05-25T08:53:16.308Z,57.60
2023-05-25T08:55:47.492Z,57.70
2023-05-25T08:58:26.216Z,57.70
2023-05-25T09:01:05.111Z,57.70
2023-05-25T09:03:37.977Z,57.70
2023-05-25T09:06:08.602Z,57.80
2023-05-25T09:08:41.635Z,57.80
2023-05-25T09:11:16.229Z,57.80
2023-05-25T09:13:47.838Z,57.80
2023-05-25T09:16:20.086Z,57.80
2023-05-25T09:18:50.457Z,57.80
2023-05-25T09:21:20.770Z,57.80
2023-05-25T09:23:53.298Z,57.80
2023-05-25T09:26:24.102Z,57.80
2023-05-25T09:28:54.461Z,57.80
2023-05-25T09:31:27.452Z,57.80
2023-05-25T09:34:01.895Z,57.80
2023-05-25T09:36:32.308Z,57.80
2023-05-25T09:39:03.373Z,57.80
2023-05-25T09:41:33.858Z,57.90
2023-05-25T09:44:10.939Z,57.90
2023-05-25T09:46:42.764Z,57.90
2023-05-25T09:49:13.992Z,57.90
2023-05-25T09:51:44.516Z,57.90
2023-05-25T09:54:15.113Z,58.00
2023-05-25T09:56:46.276Z,58.10
2023-05-25T09:59:17.795Z,58.40
2023-05-25T10:01:53.945Z,58.30
2023-05-25T10:04:25.006Z,58.40
2023-05-25T10:06:58.477Z,59.00
2023-05-25T10:09:32.322Z,58.40
2023-05-25T10:12:03.694Z,58.40
2023-05-25T10:14:37.224Z,58.40
2023-05-25T10:17:08.994Z,58.40
2023-05-25T10:20:02.611Z,58.30
2023-05-25T10:22:44.934Z,58.50
2023-05-25T10:25:34.173Z,58.30
2023-05-25T10:28:22.096Z,58.40
2023-05-25T10:30:53.944Z,58.50
2023-05-25T10:33:24.964Z,58.40
2023-05-25T10:36:09.358Z,58.40
2023-05-25T10:38:43.627Z,58.30
2023-05-25T10:41:17.677Z,58.40
2023-05-25T10:43:48.781Z,58.50
2023-05-25T10:46:20.415Z,58.30
2023-05-25T10:48:53.737Z,58.40
2023-05-25T10:51:39.183Z,58.30
2023-05-25T10:54:09.868Z,58.30
2023-05-25T10:56:40.177Z,58.40
2023-05-25T10:59:14.887Z,58.30
2023-05-25T11:02:10.414Z,58.20
2023-05-25T11:04:40.954Z,57.90
2023-05-25T11:07:17.933Z,58.00
2023-05-25T11:10:00.743Z,58.00
2023-05-25T11:12:31.178Z,58.00
2023-05-25T11:15:17.194Z,58.00
2023-05-25T11:17:49.641Z,57.90
2023-05-25T11:20:29.339Z,58.00
2023-05-25T11:23:00.963Z,58.00
2023-05-25T11:25:44.604Z,58.00
2023-05-25T11:28:15.342Z,58.00
2023-05-25T11:30:45.855Z,58.00
2023-05-25T11:33:18.556Z,58.00
2023-05-25T11:35:51.766Z,58.10
2023-05-25T11:38:32.463Z,58.00
2023-05-25T11:41:06.437Z,58.10
2023-05-25T11:43:39.262Z,58.10
2023-05-25T11:46:12.579Z,58.10
2023-05-25T11:48:56.603Z,58.10
2023-05-25T11:51:28.896Z,58.10
2023-05-25T11:53:59.442Z,58.10
2023-05-25T11:56:35.929Z,58.20
2023-05-25T11:59:10.656Z,58.20
2023-05-25T12:01:40.955Z,58.20
2023-05-25T12:04:12.544Z,58.40
2023-05-25T12:06:47.546Z,58.40
2023-05-25T12:09:23.982Z,58.40
2023-05-25T12:11:54.834Z,58.50
2023-05-25T12:14:25.787Z,58.50
2023-05-25T12:16:56.767Z,58.70
2023-05-25T12:19:27.491Z,58.80
2023-05-25T12:21:57.946Z,59.50
2023-05-25T12:24:28.882Z,58.80
2023-05-25T12:27:00.522Z,58.80
2023-05-25T12:29:31.491Z,58.70
2023-05-25T12:32:08.495Z,58.80
2023-05-25T12:34:39.072Z,58.70
2023-05-25T12:37:24.042Z,58.80
2023-05-25T12:39:55.557Z,58.80
2023-05-25T12:42:29.242Z,58.80
2023-05-25T12:45:02.698Z,58.90
2023-05-25T12:47:34.030Z,59.00
2023-05-25T12:50:18.050Z,59.00
2023-05-25T12:52:51.328Z,59.10
2023-05-25T12:55:30.133Z,59.20
2023-05-25T12:58:03.931Z,59.30
2023-05-25T13:00:39.369Z,59.30
2023-05-25T13:03:10.416Z,59.30
2023-05-25T13:05:41.215Z,59.30
2023-05-25T13:08:13.341Z,59.30
2023-05-25T13:10:44.150Z,59.40
2023-05-25T13:13:14.870Z,59.40
2023-05-25T13:15:45.197Z,59.40
2023-05-25T13:18:15.464Z,59.50
2023-05-25T13:20:49.206Z,59.40
2023-05-25T13:23:20.915Z,59.50
2023-05-25T13:25:51.404Z,59.50
2023-05-25T13:28:21.916Z,59.60
2023-05-25T13:30:52.645Z,59.60
2023-05-25T13:33:23.319Z,59.70
2023-05-25T13:36:22.729Z,59.70
2023-05-25T13:38:53.370Z,59.80
2023-05-25T13:41:24.395Z,59.80
2023-05-25T13:43:54.891Z,59.90
2023-05-25T13:46:34.075Z,60.70
2023-05-25T13:49:05.992Z,59.90
2023-05-25T13:51:37.411Z,60.00
2023-05-25T13:54:07.929Z,60.00
2023-05-25T13:56:38.855Z,60.10
2023-05-25T13:59:09.139Z,60.10
2023-05-25T14:01:39.650Z,60.20
2023-05-25T14:04:10.750Z,60.20
2023-05-25T14:06:41.096Z,60.20
2023-05-25T14:09:12.797Z,60.30
2023-05-25T14:11:43.924Z,60.30
2023-05-25T14:14:27.066Z,60.30
2023-05-25T14:17:01.990Z,60.30
2023-05-25T14:19:32.764Z,60.30
2023-05-25T14:22:13.503Z,60.20
2023-05-25T14:24:44.706Z,60.20
2023-05-25T14:27:15.119Z,60.20
2023-05-25T14:29:45.450Z,60.10
2023-05-25T14:32:17.237Z,60.10
2023-05-25T14:34:47.804Z,60.10
2023-05-25T14:37:18.403Z,60.00
2023-05-25T14:39:48.793Z,60.10
2023-05-25T14:42:19.387Z,59.90
2023-05-25T14:44:49.861Z,60.10
2023-05-25T14:47:20.332Z,60.10
2023-05-25T14:49:50.673Z,60.10
2023-05-25T14:52:21.092Z,60.00
2023-05-25T14:54:51.429Z,60.00
2023-05-25T14:57:22.047Z,59.90
2023-05-25T14:59:52.346Z,59.90
2023-05-25T15:02:22.861Z,59.90
2023-05-25T15:04:55.997Z,59.80
2023-05-25T15:07:26.610Z,59.80
2023-05-25T15:09:56.992Z,59.80
2023-05-25T15:12:27.600Z,59.90
2023-05-25T15:14:58.102Z,59.80
2023-05-25T15:17:28.843Z,59.80
2023-05-25T15:19:59.692Z,59.80
2023-05-25T15:22:30.296Z,59.70
2023-05-25T15:25:02.408Z,59.80
2023-05-25T15:27:33.999Z,59.60
2023-05-25T15:30:04.388Z,59.60
2023-05-25T15:32:34.750Z,59.50
2023-05-25T15:35:05.139Z,59.50
2023-05-25T15:37:35.533Z,59.40
2023-05-25T15:40:07.008Z,59.40
2023-05-25T15:42:37.315Z,59.50
2023-05-25T15:45:08.907Z,59.50
2023-05-25T15:47:39.379Z,59.50
2023-05-25T15:50:10.317Z,59.40
2023-05-25T15:52:40.693Z,59.40
2023-05-25T15:55:11.633Z,59.40
2023-05-25T15:57:42.117Z,59.40
2023-05-25T16:00:13.284Z,59.30
2023-05-25T16:02:43.827Z,59.30
2023-05-25T16:05:14.152Z,59.30
2023-05-25T16:07:44.687Z,59.30
2023-05-25T16:10:14.965Z,59.30
2023-05-25T16:12:45.335Z,59.30
2023-05-25T16:15:15.709Z,59.20
2023-05-25T16:17:46.078Z,59.20
2023-05-25T16:20:16.463Z,59.90
2023-05-25T16:22:46.919Z,59.30
2023-05-25T16:25:17.550Z,59.20
2023-05-25T16:27:48.022Z,59.20
2023-05-25T16:30:18.452Z,59.30
2023-05-25T16:32:48.909Z,59.40
2023-05-25T16:35:19.407Z,59.40
2023-05-25T16:37:49.827Z,59.40
2023-05-25T16:40:20.098Z,59.40
2023-05-25T16:42:50.577Z,59.40
2023-05-25T16:45:22.707Z,59.40
2023-05-25T16:47:53.481Z,59.40
2023-05-25T16:50:23.890Z,59.40
2023-05-25T16:52:54.444Z,59.30
2023-05-25T16:55:24.864Z,59.30
2023-05-25T16:57:55.375Z,59.30
2023-05-25T17:00:25.967Z,59.30
2023-05-25T17:02:56.568Z,59.40
2023-05-25T17:05:27.005Z,59.30
2023-05-25T17:07:57.365Z,59.30
2023-05-25T17:10:27.700Z,59.30
2023-05-25T17:12:58.449Z,59.30
2023-05-25T17:15:28.823Z,59.30
2023-05-25T17:17:59.353Z,59.30
2023-05-25T17:20:29.732Z,59.30
2023-05-25T17:23:00.539Z,59.20
2023-05-25T17:25:30.891Z,59.20
2023-05-25T17:28:01.306Z,59.20
2023-05-25T17:30:31.647Z,59.90
2023-05-25T17:33:03.299Z,59.30
2023-05-25T17:35:33.743Z,59.20
2023-05-25T17:38:05.238Z,59.20
2023-05-25T17:40:35.609Z,59.20
2023-05-25T17:43:06.055Z,59.20
2023-05-25T17:45:36.446Z,59.20
2023-05-25T17:48:07.343Z,59.20
2023-05-25T17:50:37.961Z,59.20
2023-05-25T17:53:08.602Z,59.20
2023-05-25T17:55:39.093Z,59.20
2023-05-25T17:58:09.719Z,59.20
2023-05-25T18:00:40.118Z,59.20
2023-05-25T18:03:10.748Z,59.20
2023-05-25T18:05:41.158Z,59.20
2023-05-25T18:08:12.060Z,59.20
2023-05-25T18:10:42.480Z,59.20
2023-05-25T18:13:12.907Z,59.20
2023-05-25T18:15:43.463Z,59.20
2023-05-25T18:18:16.395Z,59.20
2023-05-25T18:20:46.758Z,59.20
2023-05-25T18:23:17.973Z,59.20
2023-05-25T18:25:48.508Z,59.20
2023-05-25T18:28:18.884Z,59.20
2023-05-25T18:30:49.266Z,59.20
2023-05-25T18:33:19.761Z,59.20
2023-05-25T18:35:50.165Z,59.20
2023-05-25T18:38:30.835Z,59.20
2023-05-25T18:41:01.312Z,59.20
2023-05-25T18:43:31.667Z,59.20
2023-05-25T18:46:02.039Z,59.20
2023-05-25T18:48:32.833Z,59.20
2023-05-25T18:51:04.601Z,59.20
2023-05-25T18:53:35.024Z,59.20
2023-05-25T18:56:05.300Z,59.20
2023-05-25T18:58:35.673Z,59.90
2023-05-25T19:01:06.110Z,59.20
2023-05-25T19:03:36.901Z,59.30
2023-05-25T19:06:07.513Z,59.30
2023-05-25T19:08:37.843Z,59.30
2023-05-25T19:11:08.163Z,59.30
2023-05-25T19:13:38.471Z,59.30
2023-05-25T19:16:09.044Z,59.30
2023-05-25T19:18:39.338Z,59.30
2023-05-25T19:21:09.728Z,59.30
2023-05-25T19:23:40.297Z,59.30
2023-05-25T19:26:10.557Z,59.30
2023-05-25T19:28:41.031Z,59.40
2023-05-25T19:31:11.923Z,59.30
2023-05-25T19:33:42.645Z,59.40
2023-05-25T19:36:13.344Z,59.40
2023-05-25T19:38:43.805Z,59.40
2023-05-25T19:41:14.388Z,59.40
2023-05-25T19:43:44.890Z,59.40
2023-05-25T19:46:15.407Z,59.40
2023-05-25T19:48:45.873Z,59.40
2023-05-25T19:51:16.329Z,60.20
2023-05-25T19:53:48.223Z,59.50
2023-05-25T19:56:18.538Z,59.50
2023-05-25T19:58:48.910Z,59.50
2023-05-25T20:01:19.409Z,59.60
2023-05-25T20:03:50.357Z,59.50
2023-05-25T20:06:20.694Z,59.60
2023-05-25T20:08:50.972Z,59.60
2023-05-25T20:11:21.324Z,59.50
2023-05-25T20:13:51.820Z,59.50
2023-05-25T20:16:22.752Z,59.60
2023-05-25T20:18:53.204Z,59.60
2023-05-25T20:21:23.829Z,59.60
2023-05-25T20:23:54.183Z,59.60
2023-05-25T20:26:24.589Z,59.60
2023-05-25T20:28:54.848Z,59.60
2023-05-25T20:31:26.505Z,59.70
2023-05-25T20:33:56.816Z,59.60
2023-05-25T20:36:27.216Z,59.70
2023-05-25T20:38:57.586Z,59.70
2023-05-25T20:41:28.217Z,59.70
2023-05-25T20:43:58.532Z,59.70
2023-05-25T20:46:29.086Z,59.70
2023-05-25T20:49:00.168Z,59.80
2023-05-25T20:51:30.484Z,59.80
2023-05-25T20:54:00.835Z,59.80
2023-05-25T20:56:31.287Z,59.80
2023-05-25T20:59:01.691Z,59.90
2023-05-25T21:01:32.303Z,60.00
2023-05-25T21:04:03.014Z,60.90
2023-05-25T21:06:33.839Z,60.30
2023-05-25T21:09:04.361Z,60.60
2023-05-25T21:11:35.050Z,60.70
2023-05-25T21:14:05.498Z,60.80
2023-05-25T21:16:36.360Z,60.90
2023-05-25T21:19:06.704Z,60.80
2023-05-25T21:21:37.537Z,60.90
2023-05-25T21:24:08.162Z,60.90
2023-05-25T21:26:38.706Z,60.90
2023-05-25T21:29:09.442Z,61.00
2023-05-25T21:31:39.869Z,61.00
2023-05-25T21:34:10.168Z,61.00
2023-05-25T21:36:40.539Z,61.00
2023-05-25T21:39:10.831Z,61.10
2023-05-25T21:41:42.961Z,61.10
2023-05-25T21:44:13.318Z,61.10
2023-05-25T21:46:43.615Z,61.50
2023-05-25T21:49:13.989Z,61.80
2023-05-25T21:51:44.318Z,61.80
2023-05-25T21:54:14.716Z,61.80
2023-05-25T21:56:45.091Z,61.80
2023-05-25T21:59:15.367Z,61.60
2023-05-25T22:01:45.732Z,61.60
2023-05-25T22:04:16.454Z,61.60
2023-05-25T22:06:46.771Z,61.70
2023-05-25T22:09:17.303Z,61.90
2023-05-25T22:11:47.628Z,61.80
2023-05-25T22:14:17.944Z,61.70
2023-05-25T22:16:48.339Z,61.60
2023-05-25T22:19:19.181Z,61.60
2023-05-25T22:21:49.555Z,61.70
2023-05-25T22:24:19.819Z,61.70
2023-05-25T22:26:50.176Z,61.70
2023-05-25T22:29:20.526Z,61.60
2023-05-25T22:31:52.395Z,61.40
2023-05-25T22:34:22.886Z,61.20
2023-05-25T22:36:53.445Z,61.40
2023-05-25T22:39:23.977Z,61.40
2023-05-25T22:41:54.961Z,61.30
2023-05-25T22:44:25.386Z,61.40
2023-05-25T22:46:55.969Z,61.40
2023-05-25T22:49:26.254Z,61.40
2023-05-25T22:51:56.808Z,61.30
2023-05-25T22:54:27.378Z,61.30
2023-05-25T22:56:57.777Z,61.20
2023-05-25T22:59:28.160Z,61.20
2023-05-25T23:01:58.505Z,61.10
2023-05-25T23:04:28.829Z,61.20
2023-05-25T23:06:59.107Z,61.00
2023-05-25T23:09:29.532Z,61.00
2023-05-25T23:12:00.121Z,61.10
2023-05-25T23:14:31.991Z,61.00
2023-05-25T23:17:02.329Z,60.80
2023-05-25T23:19:32.701Z,60.60
2023-05-25T23:22:03.135Z,60.60
2023-05-25T23:24:33.548Z,60.60
2023-05-25T23:27:04.491Z,60.70
2023-05-25T23:29:34.804Z,60.50
2023-05-25T23:32:05.257Z,60.60
2023-05-25T23:34:35.605Z,60.70
2023-05-25T23:37:06.548Z,60.70
2023-05-25T23:39:37.060Z,60.60
2023-05-25T23:42:07.509Z,60.90
2023-05-25T23:44:37.773Z,60.80
2023-05-25T23:47:09.044Z,60.80
2023-05-25T23:49:39.425Z,61.00
2023-05-25T23:52:09.816Z,61.80
2023-05-25T23:54:40.235Z,61.10
2023-05-25T23:57:10.645Z,61.10
2023-05-25T23:59:40.981Z,61.20
